Time;durP1;ratioP1;P1;durP2;ratioP2;P2;SDS_P1;SDS_P2;PMS_P1;PMS_P2;Temp;Humidity;BMP_temperature;BMP_pressure;BME280_temperature;BME280_humidity;BME280_pressure;Samples;Min_cycle;Max_cycle;Signal;HPM_P1;HPM_P2
2021/06/28 00:00:04;;;;;;;17.67;5.97;;;;;;;18.28;75.58;96600.41;5094622;28;20028;-62
2021/06/28 00:02:32;;;;;;;7.93;3.85;;;;;;;18.27;75.52;96598.72;5094599;28;20461;-62
2021/06/28 00:04:57;;;;;;;14.10;5.50;;;;;;;18.24;75.38;96601.59;5094555;28;20024;-63
2021/06/28 00:07:23;;;;;;;8.60;4.38;;;;;;;18.23;75.55;96603.38;5094506;28;20080;-62
2021/06/28 00:09:48;;;;;;;12.38;5.38;;;;;;;18.17;75.89;96596.72;5094470;28;20377;-62
2021/06/28 00:12:14;;;;;;;9.48;4.68;;;;;;;18.14;76.39;96601.34;5094454;28;20028;-65
2021/06/28 00:14:40;;;;;;;18.85;4.78;;;;;;;18.15;75.47;96593.31;5094329;28;20024;-64
2021/06/28 00:17:05;;;;;;;16.02;4.45;;;;;;;18.11;75.64;96591.81;5094396;28;20031;-61
2021/06/28 00:19:31;;;;;;;25.02;5.47;;;;;;;18.07;75.85;96592.97;5094255;28;20023;-64
2021/06/28 00:21:56;;;;;;;16.02;4.55;;;;;;;18.02;75.73;96595.91;5094188;28;20108;-64
2021/06/28 00:24:22;;;;;;;14.52;5.00;;;;;;;17.99;75.73;96590.81;5093907;28;20104;-63
2021/06/28 00:26:47;;;;;;;11.65;4.88;;;;;;;17.99;75.76;96596.13;5094172;28;20023;-63
2021/06/28 00:29:13;;;;;;;13.52;5.13;;;;;;;17.92;76.31;96597.47;5094177;28;20079;-62
2021/06/28 00:31:39;;;;;;;11.10;4.65;;;;;;;17.91;76.43;96598.44;5093945;28;20028;-60
2021/06/28 00:34:05;;;;;;;19.08;6.10;;;;;;;17.85;76.48;96601.50;5093971;28;20039;-65
2021/06/28 00:36:31;;;;;;;16.08;4.50;;;;;;;17.82;76.22;96599.88;5093982;28;20028;-63
2021/06/28 00:38:57;;;;;;;16.67;4.90;;;;;;;17.83;75.98;96598.94;5093980;28;20028;-61
2021/06/28 00:41:24;;;;;;;18.42;5.40;;;;;;;17.79;76.01;96597.47;5093861;28;20537;-61
2021/06/28 00:43:50;;;;;;;9.88;5.07;;;;;;;17.72;76.61;96591.72;5093835;28;20016;-61
2021/06/28 00:46:15;;;;;;;7.72;4.15;;;;;;;17.67;76.16;96593.84;5093794;28;20372;-64
2021/06/28 00:48:41;;;;;;;15.57;4.63;;;;;;;17.66;76.45;96590.34;5092447;28;20077;-65
2021/06/28 00:51:06;;;;;;;13.15;5.13;;;;;;;17.65;76.72;96593.94;5093670;28;20052;-65
2021/06/28 00:53:32;;;;;;;20.83;6.15;;;;;;;17.70;76.83;96592.78;5093761;28;20023;-64
2021/06/28 00:56:09;;;;;;;15.98;4.82;;;;;;;17.70;76.59;96592.78;5093489;28;20386;-62
2021/06/28 00:58:44;;;;;;;15.75;4.85;;;;;;;17.67;76.61;96593.84;5093710;28;20028;-65
2021/06/28 01:01:11;;;;;;;28.60;5.65;;;;;;;17.66;76.00;96597.41;5093668;28;20024;-63
2021/06/28 01:03:38;;;;;;;18.80;4.43;;;;;;;17.65;76.42;96599.22;5093616;28;20027;-61
2021/06/28 01:06:05;;;;;;;19.73;5.40;;;;;;;17.63;76.30;96602.91;5093561;28;20028;-62
2021/06/28 01:08:31;;;;;;;12.75;4.43;;;;;;;17.64;76.54;96601.97;5093403;28;20020;-59
2021/06/28 01:10:57;;;;;;;15.30;4.80;;;;;;;17.64;76.55;96591.38;5093379;28;20020;-59
2021/06/28 01:13:25;;;;;;;18.90;4.63;;;;;;;17.66;76.18;96592.97;5093317;28;20027;-61
2021/06/28 01:15:51;;;;;;;13.57;5.15;;;;;;;17.65;76.05;96593.94;5093270;28;20111;-62
2021/06/28 01:18:17;;;;;;;10.18;4.30;;;;;;;17.61;75.98;96596.88;5093322;28;20078;-64
2021/06/28 01:20:43;;;;;;;13.73;5.03;;;;;;;17.61;76.27;96602.16;5093369;28;20024;-63
2021/06/28 01:23:29;;;;;;;8.25;4.85;;;;;;;17.59;75.87;96591.69;5092886;28;20024;-63
2021/06/28 01:25:57;;;;;;;21.13;5.13;;;;;;;17.62;76.16;96588.00;5093084;28;20498;-60
2021/06/28 01:28:23;;;;;;;10.73;5.13;;;;;;;17.59;76.14;96591.69;5093187;28;20024;-63
2021/06/28 01:30:50;;;;;;;8.30;4.47;;;;;;;17.57;75.81;96603.31;5093123;28;20103;-62
2021/06/28 01:33:16;;;;;;;12.65;5.00;;;;;;;17.55;75.71;96598.97;5093016;28;20016;-65
2021/06/28 01:35:41;;;;;;;10.55;4.53;;;;;;;17.52;76.18;96596.53;5093139;28;20039;-61
2021/06/28 01:38:08;;;;;;;13.90;4.40;;;;;;;17.47;76.21;96592.47;5093040;28;20027;-63
2021/06/28 01:40:34;;;;;;;16.27;5.65;;;;;;;17.47;76.21;96593.34;5093092;28;20107;-64
2021/06/28 01:43:00;;;;;;;14.27;4.88;;;;;;;17.41;76.20;96588.44;5093086;28;20104;-61
2021/06/28 01:45:25;;;;;;;9.00;4.15;;;;;;;17.39;76.16;96596.47;5093048;28;20045;-62
2021/06/28 01:47:54;;;;;;;15.27;5.15;;;;;;;17.38;76.47;96599.22;5093101;28;20025;-62
2021/06/28 01:50:21;;;;;;;12.55;4.57;;;;;;;17.39;76.28;96601.78;5093011;28;20035;-62
2021/06/28 01:52:48;;;;;;;16.13;5.43;;;;;;;17.44;75.72;96598.81;5092991;28;20016;-64
2021/06/28 01:55:16;;;;;;;21.85;5.15;;;;;;;17.43;75.62;96592.69;5093019;28;20024;-65
2021/06/28 01:57:43;;;;;;;12.90;5.18;;;;;;;17.43;75.84;96594.50;5093002;28;20017;-64
2021/06/28 02:00:09;;;;;;;13.75;4.40;;;;;;;17.42;75.98;96600.72;5092890;28;20102;-62
2021/06/28 02:02:34;;;;;;;8.50;4.15;;;;;;;17.40;75.76;96598.16;5092890;28;20373;-62
2021/06/28 02:05:00;;;;;;;13.27;5.15;;;;;;;17.36;75.81;96594.03;5092821;28;20028;-60
2021/06/28 02:07:25;;;;;;;9.35;4.63;;;;;;;17.38;75.88;96586.00;5092836;28;20025;-63
2021/06/28 02:09:51;;;;;;;15.40;4.53;;;;;;;17.38;75.94;96589.50;5092798;28;20109;-64
2021/06/28 02:12:17;;;;;;;17.52;5.00;;;;;;;17.34;76.00;96590.63;5092964;28;20024;-64
2021/06/28 02:14:43;;;;;;;14.88;4.78;;;;;;;17.34;76.09;96595.91;5092713;28;20024;-65
2021/06/28 02:17:09;;;;;;;9.07;4.63;;;;;;;17.34;76.13;96589.81;5092816;28;20040;-65
2021/06/28 02:19:34;;;;;;;10.95;4.53;;;;;;;17.35;76.16;96584.41;5092654;28;20016;-65
2021/06/28 02:22:00;;;;;;;6.93;4.40;;;;;;;17.36;75.74;96586.09;5092825;28;20050;-63
2021/06/28 02:24:26;;;;;;;17.38;5.22;;;;;;;17.34;76.36;96587.16;5092465;28;20044;-61
2021/06/28 02:26:51;;;;;;;17.25;5.43;;;;;;;17.36;76.17;96585.25;5092810;28;20024;-65
2021/06/28 02:29:17;;;;;;;11.13;4.20;;;;;;;17.34;75.44;96587.97;5092821;28;20164;-62
2021/06/28 02:31:44;;;;;;;11.73;5.10;;;;;;;17.32;75.99;96581.09;5092538;28;20027;-64
2021/06/28 02:34:11;;;;;;;6.40;4.15;;;;;;;17.30;75.85;96576.78;5093552;28;20483;-63
2021/06/28 02:36:37;;;;;;;13.45;5.03;;;;;;;17.31;75.91;96580.28;5096212;28;20036;-63
2021/06/28 02:39:06;;;;;;;7.38;4.18;;;;;;;17.29;75.70;96583.03;5096337;28;20020;-62
2021/06/28 02:41:32;;;;;;;17.33;5.88;;;;;;;17.28;75.67;96581.31;5096174;28;20111;-65
2021/06/28 02:43:58;;;;;;;7.80;3.90;;;;;;;17.26;75.60;96580.56;5096114;28;20107;-60
2021/06/28 02:46:24;;;;;;;6.53;3.95;;;;;;;17.26;75.60;96580.56;5095970;28;20033;-65
2021/06/28 02:48:50;;;;;;;14.48;5.18;;;;;;;17.23;75.64;96588.69;5096074;28;20075;-61
2021/06/28 02:51:17;;;;;;;13.98;4.22;;;;;;;17.22;75.69;96592.28;5096120;28;20040;-63
2021/06/28 02:53:43;;;;;;;17.50;5.20;;;;;;;17.22;75.74;96586.97;5096005;28;20024;-62
2021/06/28 02:56:12;;;;;;;10.60;4.10;;;;;;;17.20;76.04;96593.31;5095707;28;20473;-64
2021/06/28 02:58:53;;;;;;;16.23;4.85;;;;;;;17.16;76.33;96590.88;5095820;28;20103;-61
2021/06/28 03:01:20;;;;;;;9.85;4.30;;;;;;;17.13;76.23;96593.72;5096054;28;20036;-60
2021/06/28 03:03:46;;;;;;;17.60;5.47;;;;;;;17.14;76.17;96602.50;5095791;28;20149;-65
2021/06/28 03:06:12;;;;;;;12.00;4.63;;;;;;;17.13;76.36;96595.53;5095724;28;20056;-65
2021/06/28 03:08:38;;;;;;;7.53;4.50;;;;;;;17.12;76.41;96599.09;5095584;28;20020;-63
2021/06/28 03:11:04;;;;;;;12.15;5.50;;;;;;;17.15;76.49;96596.25;5095593;28;20016;-63
2021/06/28 03:13:32;;;;;;;11.20;4.05;;;;;;;17.15;76.23;96598.91;5095522;28;20016;-63
2021/06/28 03:15:58;;;;;;;9.75;4.25;;;;;;;17.18;76.23;96606.63;5095492;28;20553;-64
2021/06/28 03:18:24;;;;;;;12.45;4.43;;;;;;;17.20;76.03;96610.03;5095484;28;20027;-62
2021/06/28 03:20:50;;;;;;;11.13;5.00;;;;;;;17.23;76.03;96601.06;5095402;28;20027;-63
2021/06/28 03:23:16;;;;;;;8.02;4.30;;;;;;;17.25;76.26;96600.00;5095391;28;20027;-62
2021/06/28 03:25:41;;;;;;;9.38;4.32;;;;;;;17.30;76.07;96612.94;5095158;28;20036;-62
2021/06/28 03:28:07;;;;;;;12.32;5.22;;;;;;;17.39;76.43;96611.47;5095192;28;20022;-64
2021/06/28 03:30:32;;;;;;;13.43;4.25;;;;;;;17.68;75.51;96608.75;5095208;28;20028;-64
2021/06/28 03:32:59;;;;;;;5.78;3.50;;;;;;;17.98;74.59;96605.00;5095147;28;20027;-63
2021/06/28 03:35:24;;;;;;;7.57;3.38;;;;;;;18.36;73.37;96603.38;5095130;28;20049;-64
2021/06/28 03:37:50;;;;;;;5.82;3.25;;;;;;;18.74;72.33;96609.63;5095104;28;20058;-64
2021/06/28 03:40:16;;;;;;;7.75;3.17;;;;;;;19.14;71.27;96613.91;5095070;28;20017;-63
2021/06/28 03:42:42;;;;;;;6.07;3.67;;;;;;;19.54;70.40;96615.47;5095078;28;20386;-60
2021/06/28 03:45:10;;;;;;;10.00;3.33;;;;;;;20.01;69.53;96620.03;5094607;28;20028;-62
2021/06/28 03:47:37;;;;;;;4.88;3.13;;;;;;;20.40;67.76;96621.56;5094886;28;20038;-67
2021/06/28 03:50:05;;;;;;;12.55;2.88;;;;;;;20.78;66.94;96614.25;5093650;28;20404;-61
2021/06/28 03:52:30;;;;;;;14.68;3.35;;;;;;;21.16;65.71;96614.88;5094896;28;20431;-60
2021/06/28 03:54:56;;;;;;;10.25;3.15;;;;;;;21.52;64.97;96618.16;5094762;28;20028;-62
2021/06/28 03:57:21;;;;;;;15.50;3.30;;;;;;;21.87;64.54;96621.59;5094663;28;20073;-65
2021/06/28 03:59:47;;;;;;;10.20;2.50;;;;;;;22.20;63.70;96618.91;5094696;28;20028;-67
2021/06/28 04:02:13;;;;;;;8.10;2.95;;;;;;;22.54;62.12;96625.81;5094638;28;20035;-67
2021/06/28 04:04:38;;;;;;;5.78;2.85;;;;;;;22.79;61.94;96619.25;5094690;28;20102;-64
2021/06/28 04:07:04;;;;;;;8.07;3.22;;;;;;;23.13;61.16;96618.13;5094528;28;20055;-64
2021/06/28 04:09:29;;;;;;;8.13;2.58;;;;;;;23.43;60.77;96627.09;5093229;28;20115;-64
2021/06/28 04:11:55;;;;;;;11.02;2.60;;;;;;;23.76;60.33;96634.00;5094598;28;20023;-67
2021/06/28 04:14:20;;;;;;;9.35;2.88;;;;;;;24.05;59.04;96626.00;5094447;28;20020;-64
2021/06/28 04:16:46;;;;;;;7.63;2.58;;;;;;;24.28;59.01;96633.75;5094332;28;20031;-69
2021/06/28 04:19:12;;;;;;;12.95;3.15;;;;;;;24.57;58.41;96629.34;5094371;28;20021;-66
2021/06/28 04:21:37;;;;;;;8.00;2.67;;;;;;;24.84;57.90;96625.88;5094210;28;20059;-63
2021/06/28 04:24:05;;;;;;;12.55;3.38;;;;;;;25.07;57.68;96632.72;5094233;28;20099;-63
2021/06/28 04:26:32;;;;;;;8.82;2.95;;;;;;;25.34;56.76;96637.22;5094276;28;20036;-66
2021/06/28 04:28:58;;;;;;;5.88;2.63;;;;;;;25.60;56.33;96625.84;5094261;28;20044;-68
2021/06/28 04:31:27;;;;;;;5.82;2.80;;;;;;;25.88;56.27;96632.94;5094035;28;20466;-64
2021/06/28 04:33:52;;;;;;;5.65;2.38;;;;;;;26.17;56.10;96631.88;5094044;28;20024;-65
2021/06/28 04:36:18;;;;;;;2.72;2.38;;;;;;;26.46;55.25;96636.13;5093907;28;20032;-67
2021/06/28 04:38:43;;;;;;;10.18;2.95;;;;;;;26.70;54.84;96631.94;5093958;28;20023;-65
2021/06/28 04:41:09;;;;;;;7.88;3.63;;;;;;;26.84;54.73;96637.72;5093893;28;20475;-67
2021/06/28 04:43:35;;;;;;;5.43;2.75;;;;;;;27.09;54.97;96633.34;5093878;28;20024;-65
2021/06/28 04:46:00;;;;;;;6.90;3.47;;;;;;;27.38;53.80;96631.28;5093755;28;20404;-64
2021/06/28 04:48:26;;;;;;;10.52;3.50;;;;;;;27.65;53.87;96639.25;5093806;28;20023;-67
2021/06/28 04:50:52;;;;;;;7.22;2.72;;;;;;;27.88;53.76;96639.50;5093798;28;20051;-66
2021/06/28 04:53:17;;;;;;;3.42;2.00;;;;;;;28.03;53.37;96645.06;5093755;28;20032;-67
2021/06/28 04:55:43;;;;;;;8.88;2.35;;;;;;;28.16;52.98;96636.47;5093548;28;20030;-64
2021/06/28 04:58:08;;;;;;;13.13;2.17;;;;;;;28.35;52.24;96645.25;5093068;28;20028;-62
2021/06/28 05:00:34;;;;;;;3.38;2.50;;;;;;;28.58;51.31;96641.84;5093670;28;20020;-69
2021/06/28 05:02:59;;;;;;;9.65;2.42;;;;;;;28.75;50.53;96635.44;5093555;28;20107;-69
2021/06/28 05:15:57;;;;;;;5.60;2.70;;;;;;;30.25;45.88;96648.22;5173200;27;20372;-61
2021/06/28 05:18:23;;;;;;;8.70;3.10;;;;;;;30.38;46.96;96646.78;5152253;27;20038;-68
2021/06/28 05:20:49;;;;;;;4.43;2.47;;;;;;;30.44;46.32;96648.75;5151922;27;20094;-68
2021/06/28 05:23:14;;;;;;;9.38;2.92;;;;;;;30.49;48.76;96659.81;5151833;27;20376;-64
2021/06/28 05:25:42;;;;;;;6.65;3.00;;;;;;;30.60;48.70;96660.41;5151967;27;20144;-67
2021/06/28 05:28:07;;;;;;;10.68;2.85;;;;;;;30.63;46.83;96646.56;5151925;27;20023;-63
2021/06/28 05:30:33;;;;;;;7.20;2.75;;;;;;;30.82;47.91;96661.41;5151759;27;20110;-69
2021/06/28 05:32:58;;;;;;;8.27;2.72;;;;;;;31.02;48.44;96661.72;5151894;27;20019;-65
2021/06/28 05:35:24;;;;;;;3.72;2.60;;;;;;;31.17;47.55;96665.41;5151774;27;20325;-65
2021/06/28 05:37:49;;;;;;;7.90;2.85;;;;;;;31.30;46.61;96659.38;5151642;27;20030;-66
2021/06/28 05:40:15;;;;;;;4.53;2.58;;;;;;;31.50;46.50;96663.19;5151577;27;20034;-65
2021/06/28 05:42:41;;;;;;;7.03;2.97;;;;;;;31.70;46.50;96659.91;5151508;27;20026;-64
2021/06/28 05:45:08;;;;;;;8.98;2.95;;;;;;;31.84;46.44;96674.38;5150599;27;20392;-61
2021/06/28 05:47:33;;;;;;;5.38;3.20;;;;;;;31.89;45.17;96669.25;5151338;27;20066;-66
2021/06/28 05:49:59;;;;;;;8.73;2.78;;;;;;;32.02;47.34;96668.56;5151563;27;20055;-68
2021/06/28 05:52:25;;;;;;;6.20;2.92;;;;;;;32.26;46.21;96676.50;5151342;27;20051;-65
2021/06/28 05:54:51;;;;;;;7.80;2.90;;;;;;;32.38;46.51;96679.50;5151266;27;20031;-62
2021/06/28 05:57:19;;;;;;;8.32;3.17;;;;;;;32.47;46.12;96675.66;5151260;27;20100;-68
2021/06/28 05:59:45;;;;;;;5.53;2.95;;;;;;;32.62;47.08;96677.44;5151328;27;20015;-66
2021/06/28 06:02:11;;;;;;;9.00;3.65;;;;;;;32.76;46.17;96678.41;5151273;27;20027;-68
2021/06/28 06:04:37;;;;;;;7.88;2.65;;;;;;;32.80;39.62;96676.97;5151144;27;20019;-69
2021/06/28 06:07:03;;;;;;;5.32;2.92;;;;;;;32.80;45.50;96679.69;5151089;27;20026;-65
2021/06/28 06:09:28;;;;;;;6.03;3.10;;;;;;;32.82;45.06;96677.63;5151092;27;20015;-63
2021/06/28 06:11:54;;;;;;;7.88;2.75;;;;;;;33.07;46.12;96673.66;5150993;27;20476;-64
2021/06/28 06:14:20;;;;;;;3.15;2.40;;;;;;;33.13;37.99;96675.53;5150579;27;20054;-64
2021/06/28 06:16:45;;;;;;;6.55;2.95;;;;;;;33.13;38.30;96676.38;5137893;27;20038;-68
2021/06/28 06:19:12;;;;;;;2.90;2.60;;;;;;;33.19;35.80;96685.59;5136927;27;20454;-67
2021/06/28 06:21:37;;;;;;;5.90;2.90;;;;;;;33.22;34.72;96685.19;5136869;27;20034;-68
2021/06/28 06:24:03;;;;;;;3.30;2.58;;;;;;;32.98;34.98;96686.47;5136886;27;20422;-65
2021/06/28 06:26:29;;;;;;;3.75;2.60;;;;;;;33.24;37.52;96683.13;5136901;27;20039;-65
2021/06/28 06:28:55;;;;;;;4.57;2.80;;;;;;;33.54;36.50;96684.72;5136843;27;20027;-64
2021/06/28 06:31:21;;;;;;;2.85;2.65;;;;;;;33.63;35.27;96691.69;5136766;27;20088;-69
2021/06/28 06:33:46;;;;;;;6.05;2.72;;;;;;;33.49;33.26;96689.91;5136949;27;20110;-63
2021/06/28 06:36:12;;;;;;;3.08;2.53;;;;;;;33.68;34.70;96688.38;5136777;27;20120;-68
2021/06/28 06:38:38;;;;;;;7.18;2.67;;;;;;;33.84;38.31;96694.44;5136698;27;20430;-69
2021/06/28 06:41:04;;;;;;;2.63;2.40;;;;;;;34.11;35.11;96686.38;5136603;27;20023;-66
2021/06/28 06:43:29;;;;;;;3.15;2.83;;;;;;;34.32;32.40;96695.41;5136485;27;20023;-66
2021/06/28 06:45:55;;;;;;;4.55;2.75;;;;;;;34.18;32.81;96681.84;5136596;27;20030;-61
2021/06/28 06:48:21;;;;;;;5.05;3.00;;;;;;;34.27;33.09;96679.75;5136435;27;20071;-64
2021/06/28 06:50:46;;;;;;;2.92;2.50;;;;;;;34.39;32.42;96678.09;5136304;27;20030;-66
2021/06/28 06:53:12;;;;;;;4.03;2.95;;;;;;;34.54;31.04;96682.47;5118065;27;20042;-69
2021/06/28 06:55:37;;;;;;;3.55;2.80;;;;;;;34.50;32.09;96681.25;5136216;27;20023;-66
2021/06/28 06:58:10;;;;;;;2.67;2.47;;;;;;;34.44;32.23;96684.78;5136332;27;20044;-63
2021/06/28 07:00:39;;;;;;;6.43;3.00;;;;;;;34.47;31.46;96682.50;5136433;27;20034;-62
2021/06/28 07:03:05;;;;;;;6.90;3.00;;;;;;;34.37;31.04;96684.78;5136515;27;20027;-64
2021/06/28 07:05:30;;;;;;;2.63;2.20;;;;;;;34.53;32.17;96687.06;5136172;27;20031;-66
2021/06/28 07:07:56;;;;;;;2.58;2.38;;;;;;;34.82;31.49;96691.50;5136152;27;20472;-66
2021/06/28 07:10:23;;;;;;;2.58;2.38;;;;;;;34.95;31.32;96688.78;5136003;27;20031;-66
2021/06/28 07:12:50;;;;;;;4.65;2.67;;;;;;;34.96;30.50;96695.03;5136039;27;20035;-63
2021/06/28 07:15:17;;;;;;;6.13;2.88;;;;;;;34.87;31.88;96691.69;5135864;27;20054;-67
2021/06/28 07:17:42;;;;;;;3.35;2.85;;;;;;;34.86;30.43;96690.88;5135945;27;20495;-65
2021/06/28 07:20:12;;;;;;;7.90;2.70;;;;;;;34.96;34.67;96695.88;5135845;27;20031;-64
2021/06/28 07:22:37;;;;;;;3.25;2.47;;;;;;;35.16;33.08;96695.81;5135796;27;20030;-65
2021/06/28 07:25:05;;;;;;;3.78;2.63;;;;;;;35.47;32.45;96696.19;5135659;27;20023;-67
2021/06/28 07:27:31;;;;;;;3.15;2.60;;;;;;;35.72;31.44;96694.66;5134720;27;20022;-64
2021/06/28 07:29:57;;;;;;;4.30;2.40;;;;;;;35.66;31.16;96690.88;5135777;27;20019;-64
2021/06/28 07:32:22;;;;;;;2.70;2.33;;;;;;;35.61;30.96;96701.56;5135507;27;20047;-65
2021/06/28 07:34:48;;;;;;;2.97;2.50;;;;;;;35.83;30.67;96698.56;5135583;27;20019;-66
2021/06/28 07:37:14;;;;;;;3.35;2.80;;;;;;;35.86;30.23;96693.53;5135445;27;20023;-65
2021/06/28 07:39:39;;;;;;;2.85;2.63;;;;;;;35.91;32.17;96692.91;5135367;27;20050;-67
2021/06/28 07:42:05;;;;;;;5.47;3.03;;;;;;;36.00;29.71;96696.19;5135375;27;20015;-63
2021/06/28 07:44:31;;;;;;;4.13;3.33;;;;;;;36.13;30.26;96687.97;5135229;27;20503;-64
2021/06/28 07:46:57;;;;;;;4.70;3.00;;;;;;;35.96;30.60;96695.78;5135264;27;20392;-64
2021/06/28 07:49:22;;;;;;;7.38;2.95;;;;;;;35.60;30.46;96697.19;5135224;27;20025;-65
2021/06/28 07:51:48;;;;;;;3.00;2.70;;;;;;;35.49;31.14;96702.25;5135219;27;20113;-64
2021/06/28 07:54:16;;;;;;;6.43;2.83;;;;;;;35.53;32.45;96699.94;5135181;27;20020;-64
2021/06/28 07:56:42;;;;;;;5.78;3.00;;;;;;;35.57;33.56;96698.44;5135169;27;20084;-66
2021/06/28 07:59:08;;;;;;;4.85;3.08;;;;;;;35.69;32.53;96701.34;5135314;27;20022;-64
2021/06/28 08:01:33;;;;;;;4.57;2.75;;;;;;;35.90;31.27;96692.06;5135168;27;20381;-64
2021/06/28 08:03:59;;;;;;;6.60;2.80;;;;;;;36.01;29.19;96703.28;5134944;27;20390;-63
2021/06/28 08:06:25;;;;;;;7.65;2.80;;;;;;;36.10;30.43;96699.28;5134936;27;20460;-66
2021/06/28 08:08:51;;;;;;;3.90;2.67;;;;;;;36.16;31.55;96698.41;5134989;27;20098;-68
2021/06/28 08:11:20;;;;;;;5.28;2.83;;;;;;;35.89;33.26;96704.00;5135074;27;20027;-65
2021/06/28 08:13:48;;;;;;;3.63;2.92;;;;;;;35.90;29.61;96704.81;5134640;27;20015;-63
2021/06/28 08:16:15;;;;;;;7.03;2.72;;;;;;;35.96;31.14;96703.13;5134816;27;20031;-64
2021/06/28 08:18:46;;;;;;;2.97;2.70;;;;;;;35.91;32.51;96710.03;5116525;27;20035;-65
2021/06/28 08:21:11;;;;;;;;;;;;;;;35.73;30.50;96702.63;5135151;27;20023;-68
2021/06/28 08:23:38;;;;;;;3.92;3.25;;;;;;;35.66;29.01;96704.47;5134487;27;19917;-67
2021/06/28 08:26:04;;;;;;;3.65;2.92;;;;;;;35.26;29.92;96700.00;5134662;27;20062;-66
2021/06/28 08:28:30;;;;;;;5.10;2.95;;;;;;;35.52;31.41;96698.28;5134596;27;20061;-65
2021/06/28 08:30:55;;;;;;;4.88;2.75;;;;;;;35.57;30.86;96703.06;5134524;27;20030;-66
2021/06/28 08:33:21;;;;;;;4.45;3.00;;;;;;;35.27;30.00;96709.81;5134425;27;20042;-67
2021/06/28 08:35:47;;;;;;;3.97;2.85;;;;;;;35.41;33.65;96705.19;5134584;27;20027;-67
2021/06/28 08:38:13;;;;;;;3.90;2.95;;;;;;;35.56;30.44;96704.09;5134173;27;20027;-65
2021/06/28 08:40:39;;;;;;;4.35;2.80;;;;;;;35.77;29.60;96709.28;5134365;27;20076;-65
2021/06/28 08:43:06;;;;;;;4.07;2.60;;;;;;;35.95;28.35;96706.88;5134458;27;20015;-66
2021/06/28 08:45:38;;;;;;;3.50;2.60;;;;;;;36.18;25.17;96703.63;5134139;27;20380;-66
2021/06/28 08:48:06;;;;;;;3.22;2.88;;;;;;;35.98;26.73;96693.69;5134175;27;20540;-67
2021/06/28 08:50:33;;;;;;;4.53;2.97;;;;;;;35.83;27.98;96706.72;5134165;27;20031;-67
2021/06/28 08:52:59;;;;;;;6.45;2.58;;;;;;;35.80;27.57;96705.28;5134437;27;20088;-66
2021/06/28 08:55:25;;;;;;;6.35;2.90;;;;;;;35.54;26.92;96697.00;5134402;27;20026;-63
2021/06/28 08:57:51;;;;;;;5.95;2.55;;;;;;;35.03;27.00;96695.84;5134037;27;20019;-67
2021/06/28 09:00:17;;;;;;;10.35;2.90;;;;;;;34.96;26.70;96690.44;5134333;27;20050;-62
2021/06/28 09:03:04;;;;;;;9.80;2.88;;;;;;;35.08;32.67;96698.78;5134182;28;20058;-63
2021/06/28 09:05:50;;;;;;;3.40;2.78;;;;;;;34.81;28.90;96692.53;5134178;28;20058;-67
2021/06/28 09:08:17;;;;;;;3.88;2.97;;;;;;;34.74;29.66;96695.25;5134200;28;20035;-67
2021/06/28 09:10:44;;;;;;;3.25;2.75;;;;;;;34.78;29.83;96691.91;5134017;28;20023;-67
2021/06/28 09:13:10;;;;;;;4.60;2.78;;;;;;;34.92;31.07;96694.63;5133754;28;20100;-63
2021/06/28 09:15:49;;;;;;;6.80;3.17;;;;;;;35.02;27.40;96689.59;5133679;28;20484;-64
2021/06/28 09:18:23;;;;;;;3.92;3.22;;;;;;;35.03;31.33;96693.97;5134141;28;20373;-63
2021/06/28 09:21:13;;;;;;;6.13;2.85;;;;;;;34.96;28.59;96700.44;5134019;28;20043;-66
2021/06/28 09:23:40;;;;;;;3.40;2.75;;;;;;;34.63;29.60;96692.09;5133550;28;20039;-64
2021/06/28 09:26:16;;;;;;;3.00;2.70;;;;;;;34.70;28.92;96685.88;5133917;28;20084;-61
2021/06/28 09:28:45;;;;;;;5.97;2.80;;;;;;;34.69;30.35;96684.19;5134007;28;20039;-62
2021/06/28 09:31:31;;;;;;;5.68;2.85;;;;;;;34.81;29.15;96685.22;5133921;28;20618;-68
2021/06/28 09:34:18;;;;;;;5.38;3.05;;;;;;;34.70;29.22;96683.97;5133878;28;20043;-65
2021/06/28 09:36:46;;;;;;;2.60;2.40;;;;;;;34.82;31.43;96681.44;5133946;28;20023;-63
2021/06/28 09:39:24;;;;;;;4.32;2.55;;;;;;;34.45;26.92;96676.44;5133700;28;20023;-66
2021/06/28 09:41:57;;;;;;;4.18;2.70;;;;;;;34.57;30.91;96675.78;5133781;28;20031;-67
2021/06/28 09:44:24;;;;;;;4.03;2.92;;;;;;;34.61;28.35;96672.47;5133662;28;20035;-66
2021/06/28 09:47:12;;;;;;;3.13;2.83;;;;;;;34.53;28.82;96675.41;5133682;28;20051;-64
2021/06/28 09:49:40;;;;;;;4.57;2.72;;;;;;;34.71;30.30;96677.50;5133629;27;20023;-66
2021/06/28 09:52:07;;;;;;;2.90;2.60;;;;;;;34.88;30.04;96675.19;5137131;27;20034;-63
2021/06/28 09:54:35;;;;;;;5.38;2.65;;;;;;;34.91;30.94;96672.03;5137650;27;20031;-65
2021/06/28 09:57:05;;;;;;;4.88;2.40;;;;;;;35.04;30.34;96681.22;5137576;27;20110;-63
2021/06/28 09:59:35;;;;;;;;;;;;;;;35.08;29.75;96673.47;5137877;27;20068;-63
2021/06/28 10:02:19;;;;;;;7.03;3.05;;;;;;;35.07;29.78;96674.53;5137483;27;19919;-66
2021/06/28 10:07:31;;;;;;;4.68;2.50;;;;;;;35.00;31.55;96678.09;5137303;27;20023;-67
2021/06/28 10:10:11;;;;;;;5.22;2.53;;;;;;;34.71;33.50;96676.66;5137239;27;20035;-66
2021/06/28 10:12:39;;;;;;;3.72;2.50;;;;;;;34.37;34.12;96671.22;5137178;27;20019;-65
2021/06/28 10:15:09;;;;;;;4.03;2.42;;;;;;;34.32;34.80;96679.97;5136944;27;20081;-65
2021/06/28 10:17:35;;;;;;;;;;;;;;;34.32;33.18;96676.41;5137687;27;20041;-65
2021/06/28 10:20:00;;;;;;;3.70;2.85;;;;;;;34.40;33.67;96673.53;5136981;27;20372;-65
2021/06/28 10:22:26;;;;;;;4.93;2.75;;;;;;;34.62;30.84;96670.59;5137204;27;20077;-67
2021/06/28 10:24:52;;;;;;;6.03;2.83;;;;;;;34.60;34.35;96678.09;5136788;27;20096;-66
2021/06/28 10:27:18;;;;;;;4.22;2.72;;;;;;;34.44;34.20;96666.63;5136910;27;20094;-64
2021/06/28 10:29:44;;;;;;;3.45;2.42;;;;;;;34.41;30.70;96667.84;5136892;27;20460;-62
2021/06/28 10:32:12;;;;;;;2.97;2.22;;;;;;;34.55;32.81;96667.84;5137082;27;20048;-64
2021/06/28 10:34:48;;;;;;;3.13;2.75;;;;;;;34.64;30.37;96658.47;5136825;27;20556;-65
2021/06/28 10:37:32;;;;;;;4.63;2.63;;;;;;;34.51;27.40;96655.75;5136785;27;20031;-65
2021/06/28 10:40:00;;;;;;;8.73;2.50;;;;;;;34.32;29.35;96652.84;5136597;27;20023;-64
2021/06/28 10:42:35;;;;;;;2.47;2.28;;;;;;;33.97;28.55;96651.09;5136780;27;20019;-64
2021/06/28 10:45:02;;;;;;;6.43;3.15;;;;;;;33.39;30.38;96655.91;5136579;27;20468;-68
2021/06/28 10:47:30;;;;;;;4.32;3.20;;;;;;;33.16;35.31;96656.19;5136683;27;20023;-64
2021/06/28 10:49:56;;;;;;;4.78;2.75;;;;;;;33.14;38.08;96650.97;5136421;27;20034;-66
2021/06/28 10:52:37;;;;;;;4.75;3.13;;;;;;;33.10;36.80;96649.69;5136407;27;20050;-62
2021/06/28 10:55:26;;;;;;;4.80;2.88;;;;;;;33.09;38.26;96649.91;5117902;27;20023;-63
2021/06/28 10:57:53;;;;;;;9.27;3.17;;;;;;;33.20;37.85;96648.50;5122844;27;20127;-64
2021/06/28 11:00:50;;;;;;;3.92;2.75;;;;;;;33.20;37.99;96652.03;5136299;27;20023;-63
2021/06/28 11:03:33;;;;;;;5.07;2.97;;;;;;;33.21;36.75;96647.47;5136141;27;20027;-62
2021/06/28 11:06:14;;;;;;;4.72;3.00;;;;;;;33.28;33.96;96651.03;5136250;27;20031;-65
2021/06/28 11:09:10;;;;;;;3.78;2.55;;;;;;;33.36;34.10;96648.16;5136148;27;20443;-65
2021/06/28 11:11:48;;;;;;;3.20;2.90;;;;;;;33.30;35.09;96651.69;5136212;27;20031;-62
2021/06/28 11:14:19;;;;;;;2.88;2.60;;;;;;;33.43;33.99;96648.19;5135669;27;20051;-65
2021/06/28 11:17:09;;;;;;;3.67;2.65;;;;;;;33.61;34.56;96641.38;5135942;27;20055;-63
2021/06/28 11:19:51;;;;;;;3.33;2.65;;;;;;;33.58;33.72;96630.91;5136099;27;20034;-65
2021/06/28 11:22:30;;;;;;;3.50;2.60;;;;;;;33.44;35.48;96621.94;5135833;27;20028;-66
2021/06/28 11:25:08;;;;;;;6.93;2.85;;;;;;;33.44;35.99;96628.19;5135633;27;20160;-62
2021/06/28 11:27:42;;;;;;;4.38;2.65;;;;;;;33.43;34.66;96634.63;5135680;27;20026;-65
2021/06/28 11:30:14;;;;;;;3.75;2.95;;;;;;;33.46;35.30;96636.94;5135763;27;20468;-65
2021/06/28 11:33:06;;;;;;;3.17;2.78;;;;;;;33.36;35.86;96631.06;5135585;27;20060;-64
2021/06/28 11:35:49;;;;;;;5.88;2.70;;;;;;;33.18;35.30;96637.03;5135606;27;20031;-64
2021/06/28 11:38:18;;;;;;;3.30;2.60;;;;;;;33.19;32.75;96634.09;5135380;27;20019;-62
2021/06/28 11:41:06;;;;;;;4.03;2.50;;;;;;;33.01;34.16;96631.91;5135444;27;20061;-67
2021/06/28 11:43:52;;;;;;;4.07;2.63;;;;;;;32.83;37.67;96635.97;5124524;27;20035;-63
2021/06/28 11:46:46;;;;;;;3.80;3.08;;;;;;;32.72;36.72;96631.09;5134913;27;20057;-66
2021/06/28 11:49:21;;;;;;;3.72;2.90;;;;;;;32.83;37.00;96637.84;5135353;27;20111;-66